Time;durP1;ratioP1;P1;durP2;ratioP2;P2;SDS_P1;SDS_P2;PMS_P1;PMS_P2;Temp;Humidity;BMP_temperature;BMP_pressure;BME280_temperature;BME280_humidity;BME280_pressure;Samples;Min_cycle;Max_cycle;Signal;HPM_P1;HPM_P2
2023/10/03 00:00:33;;;;;;;13.65;6.50;;;;;;;;;;5055410;28;20036;-72
2023/10/03 00:03:00;;;;;;;16.20;6.22;;;;;;;;;;5055344;28;20043;-72
2023/10/03 00:05:31;;;;;;;13.77;6.63;;;;;;;;;;5055180;28;20488;-72
2023/10/03 00:08:00;;;;;;;13.45;6.57;;;;;;;;;;5055349;28;20028;-72
2023/10/03 00:10:26;;;;;;;13.35;6.18;;;;;;;;;;5053646;28;20029;-72
2023/10/03 00:12:51;;;;;;;16.15;6.45;;;;;;;;;;5054495;28;20024;-72
2023/10/03 00:15:18;;;;;;;17.05;6.15;;;;;;;;;;5055297;28;20372;-72
2023/10/03 00:17:44;;;;;;;17.38;6.68;;;;;;;;;;5054967;28;20047;-72
2023/10/03 00:20:12;;;;;;;18.15;6.80;;;;;;;;;;5054767;28;20479;-72
2023/10/03 00:22:38;;;;;;;18.33;6.47;;;;;;;;;;5055124;28;20360;-73
2023/10/03 00:25:07;;;;;;;16.67;6.80;;;;;;;;;;5053725;28;20025;-72
2023/10/03 00:27:35;;;;;;;16.67;6.18;;;;;;;;;;5054633;28;20059;-72
2023/10/03 00:30:01;;;;;;;14.90;6.43;;;;;;;;;;5054699;28;20025;-71
2023/10/03 00:32:26;;;;;;;14.40;6.68;;;;;;;;;;5054720;28;20032;-72
2023/10/03 00:34:51;;;;;;;13.02;6.35;;;;;;;;;;5054647;28;20561;-72
2023/10/03 00:37:17;;;;;;;14.35;6.40;;;;;;;;;;5054778;28;20079;-71
2023/10/03 00:39:43;;;;;;;13.75;6.38;;;;;;;;;;5053096;28;20484;-71
2023/10/03 00:42:10;;;;;;;18.15;7.00;;;;;;;;;;5054326;28;20086;-72
2023/10/03 00:44:37;;;;;;;13.88;6.40;;;;;;;;;;5054332;28;20025;-71
2023/10/03 00:47:06;;;;;;;11.35;6.38;;;;;;;;;;5054287;28;20024;-71
2023/10/03 00:49:31;;;;;;;17.05;6.30;;;;;;;;;;5054299;28;20037;-71
2023/10/03 00:51:57;;;;;;;14.32;6.65;;;;;;;;;;5054141;28;20029;-71
2023/10/03 00:54:23;;;;;;;17.65;6.40;;;;;;;;;;5054404;28;20130;-72
2023/10/03 00:56:49;;;;;;;13.63;6.38;;;;;;;;;;5054088;28;20502;-71
2023/10/03 00:59:14;;;;;;;17.92;6.70;;;;;;;;;;5052851;28;20025;-71
2023/10/03 01:01:41;;;;;;;13.80;6.10;;;;;;;;;;5053995;28;20112;-71
2023/10/03 01:04:11;;;;;;;13.85;6.43;;;;;;;;;;5054220;28;20032;-71
2023/10/03 01:06:38;;;;;;;12.63;6.10;;;;;;;;;;5053949;28;20075;-71
2023/10/03 01:09:09;;;;;;;14.48;6.43;;;;;;;;;;5053882;28;20029;-71
2023/10/03 01:11:34;;;;;;;14.68;6.10;;;;;;;;;;5052487;28;20399;-71
2023/10/03 01:14:00;;;;;;;14.23;6.28;;;;;;;;;;5052449;28;20025;-71
2023/10/03 01:16:33;;;;;;;16.63;6.97;;;;;;;;;;5053712;28;20100;-71
2023/10/03 01:19:06;;;;;;;21.15;6.53;;;;;;;;;;5052490;28;20025;-71
2023/10/03 01:21:32;;;;;;;13.73;6.68;;;;;;;;;;5053881;28;20074;-71
2023/10/03 01:23:58;;;;;;;17.27;6.10;;;;;;;;;;5052804;28;20456;-71
2023/10/03 01:26:24;;;;;;;13.23;6.50;;;;;;;;;;5053743;28;20777;-72
2023/10/03 01:28:50;;;;;;;15.25;5.95;;;;;;;;;;5053741;28;20060;-71
2023/10/03 01:31:15;;;;;;;14.73;6.25;;;;;;;;;;5053379;28;20032;-71
2023/10/03 01:33:40;;;;;;;18.83;6.80;;;;;;;;;;5053382;28;20051;-71
2023/10/03 01:36:06;;;;;;;15.77;6.35;;;;;;;;;;5053356;28;20070;-71
2023/10/03 01:38:31;;;;;;;13.10;6.68;;;;;;;;;;5052056;28;20394;-71
2023/10/03 01:41:00;;;;;;;16.88;6.40;;;;;;;;;;5053298;28;20025;-71
2023/10/03 01:43:26;;;;;;;14.45;5.85;;;;;;;;;;5052017;28;20021;-71
2023/10/03 01:45:52;;;;;;;13.65;5.82;;;;;;;;;;5053472;28;20024;-71
2023/10/03 01:48:18;;;;;;;12.63;6.30;;;;;;;;;;5053484;28;20055;-71
2023/10/03 01:50:44;;;;;;;13.52;5.97;;;;;;;;;;5052958;28;20056;-71
2023/10/03 01:53:10;;;;;;;14.50;5.88;;;;;;;;;;5053006;28;20029;-71
2023/10/03 01:55:36;;;;;;;13.70;6.13;;;;;;;;;;5053307;28;20435;-71
2023/10/03 01:58:03;;;;;;;12.87;6.07;;;;;;;;;;5053071;28;20029;-71
2023/10/03 02:00:30;;;;;;;13.45;5.78;;;;;;;;;;5052921;28;20258;-71
2023/10/03 02:02:57;;;;;;;12.00;5.40;;;;;;;;;;5053076;28;20048;-71
2023/10/03 02:05:24;;;;;;;13.38;5.90;;;;;;;;;;5053145;28;20387;-71
2023/10/03 02:07:55;;;;;;;14.43;5.85;;;;;;;;;;5053179;28;20083;-71
2023/10/03 02:10:20;;;;;;;13.82;5.85;;;;;;;;;;5052940;28;20082;-71
2023/10/03 02:12:51;;;;;;;16.17;5.72;;;;;;;;;;5052778;28;20416;-71
2023/10/03 02:15:21;;;;;;;14.90;5.93;;;;;;;;;;5053130;28;20028;-72
2023/10/03 02:17:50;;;;;;;12.88;5.57;;;;;;;;;;5051475;28;20122;-72
2023/10/03 02:20:20;;;;;;;15.10;6.03;;;;;;;;;;5052977;28;20498;-71
2023/10/03 02:22:53;;;;;;;12.45;6.15;;;;;;;;;;5052802;28;20021;-71
2023/10/03 02:25:19;;;;;;;13.00;5.95;;;;;;;;;;5053003;28;20106;-70
2023/10/03 02:27:46;;;;;;;11.50;5.72;;;;;;;;;;5051436;28;20071;-71
2023/10/03 02:30:12;;;;;;;14.10;6.50;;;;;;;;;;5052167;28;20163;-71
2023/10/03 02:32:38;;;;;;;13.00;5.90;;;;;;;;;;5052559;28;20543;-71
2023/10/03 02:35:06;;;;;;;12.93;6.10;;;;;;;;;;5052732;28;20403;-71
2023/10/03 02:37:33;;;;;;;13.82;5.95;;;;;;;;;;5054008;28;20025;-71
2023/10/03 02:40:00;;;;;;;15.18;5.72;;;;;;;;;;5056627;28;20035;-71
2023/10/03 02:42:26;;;;;;;15.52;5.80;;;;;;;;;;5056894;28;20032;-71
2023/10/03 02:44:51;;;;;;;14.55;6.20;;;;;;;;;;5056685;28;20021;-71
2023/10/03 02:47:16;;;;;;;12.30;5.72;;;;;;;;;;5056542;28;20116;-71
2023/10/03 02:49:42;;;;;;;23.50;6.72;;;;;;;;;;5056361;28;20090;-71
2023/10/03 02:52:08;;;;;;;14.40;6.35;;;;;;;;;;5055068;28;20055;-71
2023/10/03 02:54:33;;;;;;;12.20;5.90;;;;;;;;;;5055389;28;20090;-71
2023/10/03 02:56:59;;;;;;;13.50;5.93;;;;;;;;;;5056582;28;20021;-71
2023/10/03 02:59:24;;;;;;;11.98;5.90;;;;;;;;;;5056535;28;20032;-71
2023/10/03 03:01:52;;;;;;;12.95;5.97;;;;;;;;;;5056493;28;20099;-71
2023/10/03 03:04:18;;;;;;;18.83;5.85;;;;;;;;;;5056470;28;20029;-71
2023/10/03 03:06:46;;;;;;;14.25;6.00;;;;;;;;;;5054949;28;20027;-71
2023/10/03 03:09:17;;;;;;;14.07;6.00;;;;;;;;;;5054865;28;20029;-71
2023/10/03 03:11:50;;;;;;;13.00;5.97;;;;;;;;;;5056008;28;20487;-71
2023/10/03 03:14:15;;;;;;;13.80;6.05;;;;;;;;;;5056379;28;20040;-71
2023/10/03 03:16:40;;;;;;;10.88;5.63;;;;;;;;;;5056284;28;20096;-71
2023/10/03 03:19:06;;;;;;;15.23;5.95;;;;;;;;;;5056211;28;20468;-71
2023/10/03 03:21:33;;;;;;;14.02;5.80;;;;;;;;;;5055805;28;20045;-71
2023/10/03 03:24:07;;;;;;;16.27;5.60;;;;;;;;;;5055875;28;20556;-71
2023/10/03 03:26:39;;;;;;;12.48;5.57;;;;;;;;;;5056236;28;20502;-71
2023/10/03 03:29:21;;;;;;;10.95;5.78;;;;;;;;;;5055954;28;20028;-71
2023/10/03 03:31:50;;;;;;;11.18;5.28;;;;;;;;;;5056352;28;20086;-71
2023/10/03 03:34:16;;;;;;;14.10;5.95;;;;;;;;;;5054432;28;20476;-71
2023/10/03 03:36:41;;;;;;;12.50;5.67;;;;;;;;;;5055595;28;20061;-71
2023/10/03 03:39:14;;;;;;;15.18;6.00;;;;;;;;;;5055580;28;20855;-71
2023/10/03 03:41:41;;;;;;;16.85;6.10;;;;;;;;;;5054195;28;20033;-71
2023/10/03 03:44:12;;;;;;;10.95;5.15;;;;;;;;;;5056016;28;20025;-71
2023/10/03 03:46:41;;;;;;;15.70;6.03;;;;;;;;;;5054436;28;20025;-71
2023/10/03 03:49:08;;;;;;;13.52;5.70;;;;;;;;;;5054545;28;20029;-71
2023/10/03 03:51:34;;;;;;;11.23;5.25;;;;;;;;;;5055568;28;20052;-71
2023/10/03 03:54:00;;;;;;;13.50;6.28;;;;;;;;;;5053939;28;20095;-72
2023/10/03 03:56:25;;;;;;;15.32;6.05;;;;;;;;;;5053947;28;20053;-71
2023/10/03 03:58:50;;;;;;;10.77;4.97;;;;;;;;;;5055190;28;20060;-71
2023/10/03 04:01:20;;;;;;;13.38;5.53;;;;;;;;;;5055083;28;20033;-71
2023/10/03 04:03:49;;;;;;;14.27;5.82;;;;;;;;;;5053784;28;20016;-71
2023/10/03 04:06:15;;;;;;;14.98;6.00;;;;;;;;;;5055058;28;20452;-71
2023/10/03 04:08:40;;;;;;;12.00;5.38;;;;;;;;;;5054949;28;20108;-71
2023/10/03 04:11:07;;;;;;;15.73;5.47;;;;;;;;;;5053710;28;20023;-71
2023/10/03 04:13:38;;;;;;;12.27;5.80;;;;;;;;;;5054975;28;20031;-71
2023/10/03 04:16:06;;;;;;;16.90;5.82;;;;;;;;;;5054947;28;20028;-71
2023/10/03 04:18:37;;;;;;;13.20;6.18;;;;;;;;;;5053578;28;20414;-71
2023/10/03 04:21:03;;;;;;;14.55;5.95;;;;;;;;;;5054779;28;20044;-71
2023/10/03 04:23:28;;;;;;;13.50;6.00;;;;;;;;;;5055016;28;20040;-71
2023/10/03 04:25:54;;;;;;;12.15;5.70;;;;;;;;;;5053497;28;20028;-71
2023/10/03 04:28:19;;;;;;;10.68;5.38;;;;;;;;;;5054947;28;20025;-71
2023/10/03 04:30:45;;;;;;;16.70;5.82;;;;;;;;;;5054727;28;20036;-71
2023/10/03 04:33:11;;;;;;;14.48;5.93;;;;;;;;;;5054525;28;20112;-71
2023/10/03 04:35:36;;;;;;;14.57;5.50;;;;;;;;;;5053261;28;20159;-71
2023/10/03 04:38:04;;;;;;;13.53;5.80;;;;;;;;;;5053304;28;20021;-71
2023/10/03 04:40:35;;;;;;;15.80;6.28;;;;;;;;;;5054541;28;20254;-71
2023/10/03 04:43:08;;;;;;;20.95;6.70;;;;;;;;;;5053312;28;20021;-71
2023/10/03 04:45:35;;;;;;;15.32;5.90;;;;;;;;;;5054821;28;20025;-71
2023/10/03 04:48:01;;;;;;;17.23;6.10;;;;;;;;;;5054571;28;20078;-72
2023/10/03 04:50:26;;;;;;;16.40;5.85;;;;;;;;;;5054194;28;20423;-70
2023/10/03 04:52:52;;;;;;;14.02;6.07;;;;;;;;;;5054450;28;20037;-71
2023/10/03 04:55:19;;;;;;;12.27;5.63;;;;;;;;;;5054145;28;20033;-71
2023/10/03 04:57:46;;;;;;;11.18;5.53;;;;;;;;;;5052799;28;20165;-71
2023/10/03 05:00:15;;;;;;;14.05;5.70;;;;;;;;;;5053915;28;20476;-71
2023/10/03 05:02:42;;;;;;;17.40;5.82;;;;;;;;;;5054185;28;20075;-71
2023/10/03 05:05:08;;;;;;;14.35;5.35;;;;;;;;;;5052634;28;20487;-71
2023/10/03 05:07:33;;;;;;;12.73;5.53;;;;;;;;;;5053937;28;20036;-71
2023/10/03 05:09:58;;;;;;;20.52;6.32;;;;;;;;;;5053772;28;20035;-71
2023/10/03 05:12:24;;;;;;;13.07;5.57;;;;;;;;;;5052487;28;20021;-71
2023/10/03 05:14:50;;;;;;;16.50;5.75;;;;;;;;;;5053809;28;20524;-71
2023/10/03 05:17:17;;;;;;;13.85;5.95;;;;;;;;;;5052418;28;20029;-71
2023/10/03 05:19:42;;;;;;;15.90;5.63;;;;;;;;;;5053868;28;20036;-71
2023/10/03 05:22:08;;;;;;;12.40;5.10;;;;;;;;;;5054211;28;20020;-71
2023/10/03 05:24:34;;;;;;;12.75;5.72;;;;;;;;;;5053742;28;20027;-72
2023/10/03 05:27:00;;;;;;;12.88;5.50;;;;;;;;;;5054543;28;20388;-71
2023/10/03 05:29:27;;;;;;;12.40;5.80;;;;;;;;;;5053411;28;20032;-71
2023/10/03 05:31:54;;;;;;;16.08;5.70;;;;;;;;;;5053420;28;20131;-71
2023/10/03 05:34:22;;;;;;;12.40;5.88;;;;;;;;;;5053361;28;20052;-71
2023/10/03 05:36:50;;;;;;;13.35;5.88;;;;;;;;;;5053299;28;20021;-71
2023/10/03 05:39:16;;;;;;;11.35;5.38;;;;;;;;;;5053596;28;20024;-71
2023/10/03 05:41:42;;;;;;;15.38;5.60;;;;;;;;;;5051920;28;20086;-71
2023/10/03 05:44:11;;;;;;;14.35;6.15;;;;;;;;;;5054303;28;20025;-71
2023/10/03 05:46:41;;;;;;;16.70;6.20;;;;;;;;;;5053253;28;20495;-71
2023/10/03 05:49:06;;;;;;;16.33;5.63;;;;;;;;;;5053140;28;20029;-71
2023/10/03 05:51:33;;;;;;;13.80;5.22;;;;;;;;;;5053321;28;20537;-70
2023/10/03 05:53:59;;;;;;;12.07;5.03;;;;;;;;;;5053541;28;20025;-71
2023/10/03 05:56:24;;;;;;;16.52;5.70;;;;;;;;;;5051834;28;20054;-71
2023/10/03 05:58:49;;;;;;;15.43;6.15;;;;;;;;;;5053008;28;20021;-71
2023/10/03 06:01:16;;;;;;;15.10;5.93;;;;;;;;;;5053059;28;20037;-72
2023/10/03 06:03:41;;;;;;;22.27;5.75;;;;;;;;;;5053561;28;20025;-71
2023/10/03 06:06:06;;;;;;;14.15;5.53;;;;;;;;;;5053162;28;20089;-71
2023/10/03 06:08:32;;;;;;;15.48;5.95;;;;;;;;;;5053397;28;20078;-71
2023/10/03 06:11:03;;;;;;;17.10;5.68;;;;;;;;;;5051299;28;20021;-71
2023/10/03 06:13:28;;;;;;;13.40;5.43;;;;;;;;;;5052879;28;20500;-71
2023/10/03 06:15:54;;;;;;;14.98;5.75;;;;;;;;;;5052855;28;20116;-71
2023/10/03 06:18:19;;;;;;;17.02;6.13;;;;;;;;;;5052811;28;20028;-71
2023/10/03 06:20:44;;;;;;;12.00;5.50;;;;;;;;;;5052703;28;20107;-71
2023/10/03 06:23:10;;;;;;;17.90;5.70;;;;;;;;;;5052736;28;20028;-71
2023/10/03 06:25:35;;;;;;;16.73;5.57;;;;;;;;;;5052687;28;20119;-71
2023/10/03 06:28:01;;;;;;;16.80;5.45;;;;;;;;;;5051429;28;20075;-71
2023/10/03 06:30:27;;;;;;;13.02;5.30;;;;;;;;;;5052880;28;20032;-71
2023/10/03 06:32:52;;;;;;;14.38;5.78;;;;;;;;;;5052620;28;20025;-71
2023/10/03 06:35:18;;;;;;;14.60;5.10;;;;;;;;;;5052652;28;20025;-71
2023/10/03 06:37:47;;;;;;;16.55;6.07;;;;;;;;;;5051432;28;20060;-71
2023/10/03 06:40:13;;;;;;;15.57;6.20;;;;;;;;;;5052673;28;20024;-71
2023/10/03 06:42:40;;;;;;;17.88;6.00;;;;;;;;;;5052885;28;20017;-72
2023/10/03 06:45:09;;;;;;;15.73;5.70;;;;;;;;;;5051259;28;20028;-71
2023/10/03 06:47:35;;;;;;;12.68;5.25;;;;;;;;;;5052515;28;20025;-71
2023/10/03 06:50:00;;;;;;;19.42;5.85;;;;;;;;;;5052303;28;20085;-70
2023/10/03 06:52:26;;;;;;;13.73;5.30;;;;;;;;;;5052384;28;20118;-71
2023/10/03 06:54:51;;;;;;;18.42;6.22;;;;;;;;;;5052394;28;20466;-71
2023/10/03 06:57:16;;;;;;;17.13;6.18;;;;;;;;;;5052416;28;20036;-71
2023/10/03 06:59:41;;;;;;;14.77;5.70;;;;;;;;;;5052368;28;20112;-71
2023/10/03 07:02:08;;;;;;;16.30;5.65;;;;;;;;;;5052652;28;20044;-71
2023/10/03 07:04:33;;;;;;;19.55;5.95;;;;;;;;;;5051072;28;20031;-71
2023/10/03 07:06:59;;;;;;;15.63;6.10;;;;;;;;;;5052358;28;20112;-71
2023/10/03 07:09:24;;;;;;;15.18;6.05;;;;;;;;;;5052262;28;20017;-71
2023/10/03 07:11:50;;;;;;;16.55;5.43;;;;;;;;;;5050974;28;20466;-71
2023/10/03 07:14:16;;;;;;;13.48;5.20;;;;;;;;;;5052170;28;20071;-71
2023/10/03 07:16:42;;;;;;;13.82;5.75;;;;;;;;;;5052227;28;20107;-71
2023/10/03 07:19:09;;;;;;;13.70;6.10;;;;;;;;;;5052453;28;20100;-71
2023/10/03 07:21:35;;;;;;;13.43;5.50;;;;;;;;;;5050949;28;20514;-71
2023/10/03 07:24:00;;;;;;;14.88;6.00;;;;;;;;;;5055389;28;20021;-71
2023/10/03 07:26:27;;;;;;;15.52;6.10;;;;;;;;;;5056117;28;20379;-71
2023/10/03 07:28:57;;;;;;;17.25;5.80;;;;;;;;;;5056153;28;20136;-71
2023/10/03 07:31:22;;;;;;;15.25;5.45;;;;;;;;;;5055646;28;20047;-71
2023/10/03 07:33:47;;;;;;;15.13;5.95;;;;;;;;;;5055653;28;20472;-71
2023/10/03 07:36:13;;;;;;;12.25;5.47;;;;;;;;;;5055897;28;20037;-71
2023/10/03 07:38:38;;;;;;;17.15;6.07;;;;;;;;;;5055588;28;20062;-71
2023/10/03 07:41:10;;;;;;;14.50;5.65;;;;;;;;;;5055496;28;20459;-71
2023/10/03 07:43:36;;;;;;;21.30;6.40;;;;;;;;;;5055427;28;20100;-71
2023/10/03 07:46:01;;;;;;;14.73;5.65;;;;;;;;;;5055400;28;20120;-71
2023/10/03 07:48:26;;;;;;;19.67;5.85;;;;;;;;;;5055345;28;20025;-71
2023/10/03 07:50:52;;;;;;;16.13;5.97;;;;;;;;;;5055232;28;20052;-71
2023/10/03 07:53:17;;;;;;;11.70;5.45;;;;;;;;;;5055532;28;20029;-71
2023/10/03 07:55:43;;;;;;;14.55;5.95;;;;;;;;;;5055448;28;20029;-71
2023/10/03 07:58:14;;;;;;;13.98;5.80;;;;;;;;;;5055236;28;20086;-72
2023/10/03 08:00:45;;;;;;;15.20;5.90;;;;;;;;;;5053805;28;20029;-70
2023/10/03 08:03:14;;;;;;;14.00;6.15;;;;;;;;;;5055425;28;20541;-71
2023/10/03 08:05:39;;;;;;;15.38;5.72;;;;;;;;;;5054969;28;20033;-71
2023/10/03 08:08:05;;;;;;;16.02;5.60;;;;;;;;;;5055292;28;20078;-71
2023/10/03 08:10:30;;;;;;;18.38;6.40;;;;;;;;;;5055023;28;20068;-71
2023/10/03 08:12:57;;;;;;;15.98;6.00;;;;;;;;;;5053526;28;20028;-71
2023/10/03 08:15:31;;;;;;;15.80;6.30;;;;;;;;;;5055089;28;20033;-71
2023/10/03 08:17:57;;;;;;;15.75;6.20;;;;;;;;;;5055276;28;20024;-71
2023/10/03 08:20:23;;;;;;;14.30;5.82;;;;;;;;;;5054732;28;20033;-71
2023/10/03 08:22:52;;;;;;;14.43;5.47;;;;;;;;;;5054802;28;20056;-71
2023/10/03 08:25:22;;;;;;;17.23;5.97;;;;;;;;;;5054748;28;20103;-71
2023/10/03 08:27:49;;;;;;;15.88;6.00;;;;;;;;;;5055546;28;20353;-71
2023/10/03 08:30:27;;;;;;;18.70;6.00;;;;;;;;;;5054600;28;20127;-71
2023/10/03 08:32:54;;;;;;;21.75;6.70;;;;;;;;;;5055125;28;20119;-71
2023/10/03 08:35:20;;;;;;;17.77;6.68;;;;;;;;;;5053935;28;20078;-71
2023/10/03 08:37:45;;;;;;;18.45;7.13;;;;;;;;;;5054495;28;20029;-71
2023/10/03 08:40:19;;;;;;;16.83;6.87;;;;;;;;;;5054352;28;20108;-70
2023/10/03 08:42:52;;;;;;;14.48;6.32;;;;;;;;;;5053063;28;20324;-71
2023/10/03 08:45:22;;;;;;;16.63;6.45;;;;;;;;;;5054463;28;20021;-71
2023/10/03 08:47:50;;;;;;;19.92;6.05;;;;;;;;;;5054365;28;20547;-71
2023/10/03 08:50:29;;;;;;;14.20;6.32;;;;;;;;;;5054345;28;20025;-72
2023/10/03 08:52:56;;;;;;;16.85;6.60;;;;;;;;;;5054261;28;20025;-71
2023/10/03 08:55:26;;;;;;;16.58;5.90;;;;;;;;;;5052861;28;20055;-71
2023/10/03 08:57:52;;;;;;;13.25;5.82;;;;;;;;;;5054463;28;20075;-71
2023/10/03 09:00:25;;;;;;;15.88;6.07;;;;;;;;;;5054068;28;20025;-71
2023/10/03 09:02:59;;;;;;;17.85;6.07;;;;;;;;;;5054148;28;20075;-71
2023/10/03 09:05:25;;;;;;;16.08;6.50;;;;;;;;;;5053404;28;20393;-71
2023/10/03 09:07:55;;;;;;;13.68;5.75;;;;;;;;;;5053059;28;20028;-72
2023/10/03 09:10:22;;;;;;;22.23;6.43;;;;;;;;;;5053983;28;20026;-71
2023/10/03 09:13:04;;;;;;;14.50;5.32;;;;;;;;;;5054633;28;20032;-71
2023/10/03 09:15:42;;;;;;;15.98;5.90;;;;;;;;;;5054754;28;20429;-72
2023/10/03 09:18:14;;;;;;;17.27;6.88;;;;;;;;;;5052730;28;20032;-72
2023/10/03 09:20:42;;;;;;;15.05;6.50;;;;;;;;;;5052557;28;20111;-71
2023/10/03 09:23:08;;;;;;;20.15;6.35;;;;;;;;;;5053284;28;20125;-71
2023/10/03 09:25:48;;;;;;;20.60;6.43;;;;;;;;;;5053567;28;20076;-71
2023/10/03 09:28:14;;;;;;;21.08;7.03;;;;;;;;;;5052640;28;20385;-71
2023/10/03 09:30:39;;;;;;;17.60;6.38;;;;;;;;;;5053666;28;20028;-71
2023/10/03 09:33:09;;;;;;;17.30;6.97;;;;;;;;;;5053438;28;20025;-72
2023/10/03 09:35:39;;;;;;;15.88;6.88;;;;;;;;;;5052410;28;20400;-71
2023/10/03 09:38:08;;;;;;;15.77;6.47;;;;;;;;;;5053712;28;20024;-71
2023/10/03 09:40:49;;;;;;;13.82;6.55;;;;;;;;;;5053365;28;20052;-71
2023/10/03 09:43:16;;;;;;;17.85;6.85;;;;;;;;;;5053392;28;20519;-71
2023/10/03 09:45:42;;;;;;;14.50;6.53;;;;;;;;;;5052535;28;20029;-71
2023/10/03 09:48:07;;;;;;;18.20;6.60;;;;;;;;;;5053217;28;20027;-71
2023/10/03 09:50:35;;;;;;;14.68;6.60;;;;;;;;;;5053008;28;20032;-71
2023/10/03 09:53:01;;;;;;;16.00;5.95;;;;;;;;;;5053406;28;20543;-72
2023/10/03 09:55:40;;;;;;;16.58;6.95;;;;;;;;;;5053439;28;20028;-71
2023/10/03 09:58:06;;;;;;;17.52;6.95;;;;;;;;;;5053188;28;20028;-72
2023/10/03 10:00:51;;;;;;;18.25;7.20;;;;;;;;;;5053199;28;20025;-71
2023/10/03 10:03:26;;;;;;;22.02;7.18;;;;;;;;;;5053374;28;20092;-71
2023/10/03 10:06:22;;;;;;;16.17;7.15;;;;;;;;;;5053003;28;20025;-71
2023/10/03 10:08:48;;;;;;;16.88;6.65;;;;;;;;;;5053648;28;20025;-71
2023/10/03 10:11:14;;;;;;;17.48;6.25;;;;;;;;;;5051707;28;20098;-72
2023/10/03 10:14:09;;;;;;;15.20;6.13;;;;;;;;;;5052864;28;20033;-71
2023/10/03 10:17:04;;;;;;;17.95;7.07;;;;;;;;;;5051732;28;20091;-71
2023/10/03 10:20:07;;;;;;;17.48;6.55;;;;;;;;;;5052724;28;20404;-71
2023/10/03 10:23:35;;;;;;;16.02;5.93;;;;;;;;;;5052808;28;20036;-71
2023/10/03 10:25:55;;;;;;;19.48;6.78;;;;;;;;;;5052420;28;20029;-71
2023/10/03 10:28:26;;;;;;;17.27;6.30;;;;;;;;;;5051636;28;20049;-71
2023/10/03 10:31:24;;;;;;;17.67;7.30;;;;;;;;;;5052990;28;20020;-71
2023/10/03 10:34:10;;;;;;;17.33;6.40;;;;;;;;;;5053054;28;20365;-71
2023/10/03 10:37:01;;;;;;;16.88;6.88;;;;;;;;;;5051625;28;20364;-71
2023/10/03 10:43:04;;;;;;;16.42;6.32;;;;;;;;;;5053058;28;20067;-71
2023/10/03 10:45:37;;;;;;;16.38;6.88;;;;;;;;;;5052773;28;20032;-71
2023/10/03 10:48:03;;;;;;;15.65;6.75;;;;;;;;;;5052864;28;20033;-70
2023/10/03 10:51:04;;;;;;;19.65;7.18;;;;;;;;;;5052372;28;20172;-71
2023/10/03 10:53:44;;;;;;;16.08;6.30;;;;;;;;;;5051207;28;20135;-71
2023/10/03 10:56:11;;;;;;;16.85;6.45;;;;;;;;;;5052972;28;20021;-71
2023/10/03 10:58:50;;;;;;;19.05;6.75;;;;;;;;;;5054602;28;20395;-71
2023/10/03 11:01:16;;;;;;;18.40;7.15;;;;;;;;;;5056584;28;20100;-71
2023/10/03 11:03:43;;;;;;;20.05;7.07;;;;;;;;;;5056710;28;20021;-70
2023/10/03 11:06:16;;;;;;;21.92;6.70;;;;;;;;;;5056397;28;20028;-71
2023/10/03 11:08:49;;;;;;;17.40;6.68;;;;;;;;;;5056352;28;20024;-71
2023/10/03 11:11:15;;;;;;;18.00;7.00;;;;;;;;;;5054815;28;20055;-71
2023/10/03 11:13:48;;;;;;;17.20;7.28;;;;;;;;;;5056168;28;20036;-70
2023/10/03 11:16:20;;;;;;;;;;;;;;;;;;5057023;28;20154;-71
2023/10/03 11:18:45;;;;;;;19.45;7.30;;;;;;;;;;5055142;28;20326;-71
2023/10/03 11:21:12;;;;;;;14.60;6.32;;;;;;;;;;5056015;28;20096;-71
2023/10/03 11:23:37;;;;;;;14.45;6.35;;;;;;;;;;5056231;28;20090;-71
2023/10/03 11:26:04;;;;;;;20.93;6.97;;;;;;;;;;5054736;28;20128;-72
2023/10/03 11:28:44;;;;;;;20.10;7.07;;;;;;;;;;5055874;28;20265;-71
2023/10/03 11:31:09;;;;;;;17.25;7.07;;;;;;;;;;5056025;28;20021;-71
2023/10/03 11:33:45;;;;;;;16.83;6.60;;;;;;;;;;5054498;28;20475;-71
2023/10/03 11:36:12;;;;;;;16.65;6.57;;;;;;;;;;5056086;28;20029;-71
2023/10/03 11:38:49;;;;;;;19.10;6.85;;;;;;;;;;5055671;28;20377;-71
2023/10/03 11:41:29;;;;;;;17.45;6.65;;;;;;;;;;5055746;28;20025;-71
2023/10/03 11:43:54;;;;;;;15.23;6.50;;;;;;;;;;5055756;28;20139;-71
2023/10/03 11:46:20;;;;;;;14.90;6.40;;;;;;;;;;5055889;28;20052;-71
2023/10/03 11:48:45;;;;;;;13.40;5.70;;;;;;;;;;5055580;28;20288;-72
2023/10/03 11:51:13;;;;;;;14.75;6.28;;;;;;;;;;5055481;28;20087;-71
2023/10/03 11:53:38;;;;;;;16.52;6.57;;;;;;;;;;5055869;28;20021;-73
2023/10/03 11:56:03;;;;;;;17.57;6.60;;;;;;;;;;5054218;28;20501;-72
2023/10/03 11:58:29;;;;;;;13.23;5.97;;;;;;;;;;5055410;28;20262;-72
2023/10/03 12:00:54;;;;;;;15.40;6.00;;;;;;;;;;5055323;28;20029;-72
2023/10/03 12:03:22;;;;;;;13.73;6.00;;;;;;;;;;5055475;28;20013;-72
2023/10/03 12:05:49;;;;;;;13.70;6.13;;;;;;;;;;5055656;28;20289;-72
2023/10/03 12:08:14;;;;;;;17.90;5.35;;;;;;;;;;5055331;28;20047;-73
2023/10/03 12:10:41;;;;;;;13.80;5.65;;;;;;;;;;5054377;28;20484;-72
2023/10/03 12:13:09;;;;;;;11.75;5.43;;;;;;;;;;5055111;28;20560;-72
2023/10/03 12:15:36;;;;;;;15.02;6.05;;;;;;;;;;5055275;28;20395;-72
2023/10/03 12:18:01;;;;;;;13.13;5.22;;;;;;;;;;5055331;28;20542;-72
2023/10/03 12:20:26;;;;;;;8.68;3.92;;;;;;;;;;5055069;28;20033;-70
2023/10/03 12:22:56;;;;;;;11.00;3.57;;;;;;;;;;5055046;28;20027;-70
2023/10/03 12:25:27;;;;;;;8.35;3.55;;;;;;;;;;5054737;28;20292;-70
2023/10/03 12:27:53;;;;;;;7.50;3.53;;;;;;;;;;5054745;28;20025;-70
2023/10/03 12:30:18;;;;;;;6.88;3.58;;;;;;;;;;5054894;28;20065;-70
2023/10/03 12:32:46;;;;;;;11.20;3.70;;;;;;;;;;5054487;28;20104;-70
2023/10/03 12:35:12;;;;;;;10.15;3.78;;;;;;;;;;5053208;28;20017;-70
2023/10/03 12:37:38;;;;;;;10.45;3.63;;;;;;;;;;5054661;28;20029;-72
2023/10/03 12:40:08;;;;;;;15.02;4.32;;;;;;;;;;5054383;28;20055;-72
2023/10/03 12:42:34;;;;;;;9.52;3.38;;;;;;;;;;5054907;28;20021;-72
2023/10/03 12:45:03;;;;;;;10.40;3.63;;;;;;;;;;5053381;28;20033;-73
2023/10/03 12:47:29;;;;;;;6.40;3.50;;;;;;;;;;5054423;28;20495;-70
2023/10/03 12:49:57;;;;;;;11.82;3.40;;;;;;;;;;5053556;28;20396;-72
2023/10/03 12:52:22;;;;;;;6.95;3.72;;;;;;;;;;5053011;28;20025;-73
2023/10/03 12:54:47;;;;;;;12.70;3.80;;;;;;;;;;5053035;28;20395;-73
2023/10/03 12:57:13;;;;;;;9.75;3.08;;;;;;;;;;5053156;28;20292;-72
2023/10/03 12:59:39;;;;;;;7.93;3.40;;;;;;;;;;5054142;28;20102;-72
2023/10/03 13:02:06;;;;;;;8.35;3.90;;;;;;;;;;5054099;28;20502;-72
2023/10/03 13:04:32;;;;;;;11.02;3.30;;;;;;;;;;5054280;28;20056;-73
2023/10/03 13:06:58;;;;;;;8.77;4.20;;;;;;;;;;5054100;28;20023;-72
2023/10/03 13:09:24;;;;;;;8.30;3.85;;;;;;;;;;5054310;28;20036;-72
2023/10/03 13:11:49;;;;;;;11.57;3.70;;;;;;;;;;5053949;28;20024;-72
2023/10/03 13:14:15;;;;;;;6.53;4.00;;;;;;;;;;5053854;28;20021;-72
2023/10/03 13:16:40;;;;;;;9.60;3.90;;;;;;;;;;5053878;28;20265;-72
2023/10/03 13:19:05;;;;;;;8.32;4.10;;;;;;;;;;5052615;28;20273;-72
2023/10/03 13:21:31;;;;;;;8.15;4.22;;;;;;;;;;5054163;28;20433;-73
2023/10/03 13:23:57;;;;;;;9.32;4.07;;;;;;;;;;5054185;28;20020;-70
2023/10/03 13:26:22;;;;;;;11.20;4.20;;;;;;;;;;5054076;28;20029;-72
2023/10/03 13:28:47;;;;;;;11.10;3.70;;;;;;;;;;5054079;28;20472;-72
2023/10/03 13:31:12;;;;;;;13.90;4.60;;;;;;;;;;5053554;28;20250;-72
2023/10/03 13:33:38;;;;;;;9.50;3.93;;;;;;;;;;5053506;28;20281;-72
2023/10/03 13:36:04;;;;;;;8.27;4.30;;;;;;;;;;5052329;28;20290;-72
2023/10/03 13:38:30;;;;;;;10.63;4.05;;;;;;;;;;5053832;28;20080;-72
2023/10/03 13:40:55;;;;;;;9.45;4.18;;;;;;;;;;5053400;28;20024;-72
2023/10/03 13:43:27;;;;;;;17.83;4.78;;;;;;;;;;5053456;28;20032;-72
2023/10/03 13:45:55;;;;;;;11.70;4.30;;;;;;;;;;5053400;28;20033;-72
2023/10/03 13:48:21;;;;;;;10.00;4.53;;;;;;;;;;5053368;28;20025;-72
2023/10/03 13:50:46;;;;;;;13.43;4.37;;;;;;;;;;5053454;28;20104;-72
2023/10/03 13:53:14;;;;;;;10.70;4.32;;;;;;;;;;5053396;28;20305;-72
2023/10/03 13:55:40;;;;;;;10.27;4.28;;;;;;;;;;5053174;28;20025;-72
2023/10/03 13:58:05;;;;;;;10.95;3.97;;;;;;;;;;5053182;28;20020;-72
2023/10/03 14:00:35;;;;;;;11.07;4.13;;;;;;;;;;5053074;28;20057;-72
2023/10/03 14:03:05;;;;;;;8.75;4.13;;;;;;;;;;5053229;28;20340;-72
2023/10/03 14:05:31;;;;;;;13.27;4.15;;;;;;;;;;5053595;28;20491;-72
2023/10/03 14:07:57;;;;;;;12.88;4.35;;;;;;;;;;5051606;28;20437;-72
2023/10/03 14:10:23;;;;;;;8.40;3.65;;;;;;;;;;5052956;28;20162;-72
2023/10/03 14:12:48;;;;;;;9.02;3.75;;;;;;;;;;5052813;28;20025;-72
2023/10/03 14:15:14;;;;;;;8.53;4.30;;;;;;;;;;5052969;28;20114;-72
2023/10/03 14:17:40;;;;;;;10.63;4.10;;;;;;;;;;5053083;28;20300;-72
2023/10/03 14:20:09;;;;;;;12.10;4.10;;;;;;;;;;5051556;28;20082;-72
2023/10/03 14:22:36;;;;;;;8.50;4.25;;;;;;;;;;5052827;28;20025;-72
2023/10/03 14:25:03;;;;;;;18.60;4.30;;;;;;;;;;5053132;28;20027;-72
2023/10/03 14:27:29;;;;;;;9.70;4.13;;;;;;;;;;5052800;28;20028;-72
2023/10/03 14:29:54;;;;;;;11.52;3.88;;;;;;;;;;5052674;28;20029;-72
2023/10/03 14:32:21;;;;;;;14.53;3.90;;;;;;;;;;5053551;28;20505;-73
2023/10/03 14:34:48;;;;;;;10.40;4.30;;;;;;;;;;5056914;28;20252;-72
2023/10/03 14:37:13;;;;;;;12.30;4.18;;;;;;;;;;5056887;28;20083;-72
2023/10/03 14:39:38;;;;;;;11.90;4.40;;;;;;;;;;5056982;28;20020;-72